sensor_id;sensor_type;location;lat;lon;timestamp;temperature;humidity
32506;DHT22;18955;51.224;8.482;2022-09-09T00:00:17;14.80;73.30
32506;DHT22;18955;51.224;8.482;2022-09-09T00:03:34;14.80;73.40
32506;DHT22;18955;51.224;8.482;2022-09-09T00:08:29;14.80;73.30
32506;DHT22;18955;51.224;8.482;2022-09-09T00:11:01;14.80;73.30
32506;DHT22;18955;51.224;8.482;2022-09-09T00:13:54;14.80;73.30
32506;DHT22;18955;51.224;8.482;2022-09-09T00:16:25;14.80;73.30
32506;DHT22;18955;51.224;8.482;2022-09-09T00:22:19;14.80;73.50
32506;DHT22;18955;51.224;8.482;2022-09-09T00:25:01;14.80;73.30
32506;DHT22;18955;51.224;8.482;2022-09-09T00:30:18;14.70;73.30
32506;DHT22;18955;51.224;8.482;2022-09-09T00:32:54;14.70;73.40
32506;DHT22;18955;51.224;8.482;2022-09-09T00:35:36;14.70;73.40
32506;DHT22;18955;51.224;8.482;2022-09-09T00:38:14;14.70;73.50
32506;DHT22;18955;51.224;8.482;2022-09-09T00:43:31;14.70;73.30
32506;DHT22;18955;51.224;8.482;2022-09-09T00:51:25;14.70;73.40
32506;DHT22;18955;51.224;8.482;2022-09-09T00:57:27;14.60;73.40
32506;DHT22;18955;51.224;8.482;2022-09-09T01:10:53;14.60;73.50
32506;DHT22;18955;51.224;8.482;2022-09-09T01:13:27;14.60;73.60
32506;DHT22;18955;51.224;8.482;2022-09-09T01:16:02;14.60;73.50
32506;DHT22;18955;51.224;8.482;2022-09-09T01:18:44;14.60;73.40
32506;DHT22;18955;51.224;8.482;2022-09-09T01:21:42;14.60;73.60
32506;DHT22;18955;51.224;8.482;2022-09-09T01:24:20;14.60;73.50
32506;DHT22;18955;51.224;8.482;2022-09-09T01:27:17;14.60;73.50
32506;DHT22;18955;51.224;8.482;2022-09-09T01:29:44;14.60;73.40
32506;DHT22;18955;51.224;8.482;2022-09-09T01:35:12;14.50;73.50
32506;DHT22;18955;51.224;8.482;2022-09-09T01:37:41;14.50;73.50
32506;DHT22;18955;51.224;8.482;2022-09-09T01:40:08;14.50;73.50
32506;DHT22;18955;51.224;8.482;2022-09-09T01:42:36;14.50;73.40
32506;DHT22;18955;51.224;8.482;2022-09-09T01:45:04;14.50;73.40
32506;DHT22;18955;51.224;8.482;2022-09-09T01:47:30;14.50;73.50
32506;DHT22;18955;51.224;8.482;2022-09-09T01:50:05;14.50;73.40
32506;DHT22;18955;51.224;8.482;2022-09-09T01:52:34;14.50;73.60
32506;DHT22;18955;51.224;8.482;2022-09-09T01:55:03;14.50;73.40
32506;DHT22;18955;51.224;8.482;2022-09-09T01:58:05;14.50;73.50
32506;DHT22;18955;51.224;8.482;2022-09-09T02:00:41;14.50;73.60
32506;DHT22;18955;51.224;8.482;2022-09-09T02:03:23;14.40;73.90
32506;DHT22;18955;51.224;8.482;2022-09-09T02:06:11;14.40;73.50
32506;DHT22;18955;51.224;8.482;2022-09-09T02:08:45;14.40;73.40
32506;DHT22;18955;51.224;8.482;2022-09-09T02:11:21;14.40;73.40
32506;DHT22;18955;51.224;8.482;2022-09-09T02:14:08;14.40;73.60
32506;DHT22;18955;51.224;8.482;2022-09-09T02:16:44;14.40;73.40
32506;DHT22;18955;51.224;8.482;2022-09-09T02:19:29;14.40;73.50
32506;DHT22;18955;51.224;8.482;2022-09-09T02:22:22;14.40;73.50
32506;DHT22;18955;51.224;8.482;2022-09-09T02:24:51;14.40;73.40
32506;DHT22;18955;51.224;8.482;2022-09-09T02:27:24;14.40;73.40
32506;DHT22;18955;51.224;8.482;2022-09-09T02:29:52;14.40;73.30
32506;DHT22;18955;51.224;8.482;2022-09-09T02:32:32;14.40;73.50
32506;DHT22;18955;51.224;8.482;2022-09-09T02:35:04;14.40;73.40
32506;DHT22;18955;51.224;8.482;2022-09-09T02:37:37;14.40;73.50
32506;DHT22;18955;51.224;8.482;2022-09-09T02:40:06;14.30;73.30
32506;DHT22;18955;51.224;8.482;2022-09-09T02:42:42;14.30;73.40
32506;DHT22;18955;51.224;8.482;2022-09-09T02:45:11;14.30;73.40
32506;DHT22;18955;51.224;8.482;2022-09-09T02:47:44;14.30;73.50
32506;DHT22;18955;51.224;8.482;2022-09-09T02:50:19;14.30;73.30
32506;DHT22;18955;51.224;8.482;2022-09-09T02:55:50;14.30;73.30
32506;DHT22;18955;51.224;8.482;2022-09-09T02:58:21;14.30;73.20
32506;DHT22;18955;51.224;8.482;2022-09-09T03:00:58;14.30;73.20
32506;DHT22;18955;51.224;8.482;2022-09-09T03:03:27;14.30;73.30
32506;DHT22;18955;51.224;8.482;2022-09-09T03:05:53;14.30;73.30
32506;DHT22;18955;51.224;8.482;2022-09-09T03:08:20;14.30;73.30
32506;DHT22;18955;51.224;8.482;2022-09-09T03:10:47;14.30;73.40
32506;DHT22;18955;51.224;8.482;2022-09-09T03:13:15;14.20;73.20
32506;DHT22;18955;51.224;8.482;2022-09-09T03:15:41;14.30;73.30
32506;DHT22;18955;51.224;8.482;2022-09-09T03:18:12;14.30;73.20
32506;DHT22;18955;51.224;8.482;2022-09-09T03:20:39;14.30;73.20
32506;DHT22;18955;51.224;8.482;2022-09-09T03:23:08;14.30;73.20
32506;DHT22;18955;51.224;8.482;2022-09-09T03:25:34;14.30;73.00
32506;DHT22;18955;51.224;8.482;2022-09-09T03:28:01;14.30;73.30
32506;DHT22;18955;51.224;8.482;2022-09-09T03:30:28;14.20;73.20
32506;DHT22;18955;51.224;8.482;2022-09-09T03:32:56;14.20;73.20
32506;DHT22;18955;51.224;8.482;2022-09-09T03:35:27;14.20;73.40
32506;DHT22;18955;51.224;8.482;2022-09-09T03:37:53;14.20;73.40
32506;DHT22;18955;51.224;8.482;2022-09-09T03:40:21;14.20;73.30
32506;DHT22;18955;51.224;8.482;2022-09-09T03:42:47;14.20;73.30
32506;DHT22;18955;51.224;8.482;2022-09-09T03:45:17;14.20;73.10
32506;DHT22;18955;51.224;8.482;2022-09-09T03:47:43;14.20;73.40
32506;DHT22;18955;51.224;8.482;2022-09-09T03:50:10;14.20;73.50
32506;DHT22;18955;51.224;8.482;2022-09-09T03:52:41;14.20;73.50
32506;DHT22;18955;51.224;8.482;2022-09-09T03:55:14;14.20;73.40
32506;DHT22;18955;51.224;8.482;2022-09-09T03:57:41;14.20;73.30
32506;DHT22;18955;51.224;8.482;2022-09-09T04:00:09;14.20;73.40
32506;DHT22;18955;51.224;8.482;2022-09-09T04:02:50;14.20;73.40
32506;DHT22;18955;51.224;8.482;2022-09-09T04:05:20;14.20;74.10
32506;DHT22;18955;51.224;8.482;2022-09-09T04:07:47;14.20;73.60
32506;DHT22;18955;51.224;8.482;2022-09-09T04:10:14;14.20;73.60
32506;DHT22;18955;51.224;8.482;2022-09-09T04:12:42;14.20;73.40
32506;DHT22;18955;51.224;8.482;2022-09-09T04:15:09;14.20;73.40
32506;DHT22;18955;51.224;8.482;2022-09-09T04:17:38;14.20;73.30
32506;DHT22;18955;51.224;8.482;2022-09-09T04:20:05;14.20;73.50
32506;DHT22;18955;51.224;8.482;2022-09-09T04:22:31;14.20;73.30
32506;DHT22;18955;51.224;8.482;2022-09-09T04:24:59;14.20;73.40
32506;DHT22;18955;51.224;8.482;2022-09-09T04:27:25;14.20;73.40
32506;DHT22;18955;51.224;8.482;2022-09-09T04:29:51;14.20;73.50
32506;DHT22;18955;51.224;8.482;2022-09-09T04:32:17;14.10;73.30
32506;DHT22;18955;51.224;8.482;2022-09-09T04:34:43;14.20;73.50
32506;DHT22;18955;51.224;8.482;2022-09-09T04:37:10;14.20;73.40
32506;DHT22;18955;51.224;8.482;2022-09-09T04:39:38;14.10;73.50
32506;DHT22;18955;51.224;8.482;2022-09-09T04:42:05;14.20;73.40
32506;DHT22;18955;51.224;8.482;2022-09-09T04:44:31;14.20;73.30
32506;DHT22;18955;51.224;8.482;2022-09-09T04:46:59;14.10;73.40
32506;DHT22;18955;51.224;8.482;2022-09-09T04:49:25;14.20;73.40
32506;DHT22;18955;51.224;8.482;2022-09-09T04:51:52;14.10;73.50
32506;DHT22;18955;51.224;8.482;2022-09-09T04:54:18;14.10;73.50
32506;DHT22;18955;51.224;8.482;2022-09-09T04:56:45;14.10;73.70
32506;DHT22;18955;51.224;8.482;2022-09-09T04:59:12;14.10;73.80
32506;DHT22;18955;51.224;8.482;2022-09-09T05:01:45;14.10;73.60
32506;DHT22;18955;51.224;8.482;2022-09-09T05:04:12;14.10;74.30
32506;DHT22;18955;51.224;8.482;2022-09-09T05:06:38;14.10;73.60
32506;DHT22;18955;51.224;8.482;2022-09-09T05:09:05;14.10;73.60
32506;DHT22;18955;51.224;8.482;2022-09-09T05:11:32;14.10;73.50
32506;DHT22;18955;51.224;8.482;2022-09-09T05:14:19;14.10;73.50
32506;DHT22;18955;51.224;8.482;2022-09-09T05:16:45;14.10;73.60
32506;DHT22;18955;51.224;8.482;2022-09-09T05:19:13;14.10;73.60
32506;DHT22;18955;51.224;8.482;2022-09-09T05:21:44;14.10;73.50
32506;DHT22;18955;51.224;8.482;2022-09-09T05:24:10;14.20;73.60
32506;DHT22;18955;51.224;8.482;2022-09-09T05:26:37;14.20;73.50
32506;DHT22;18955;51.224;8.482;2022-09-09T05:29:03;14.10;73.50
32506;DHT22;18955;51.224;8.482;2022-09-09T05:31:31;14.20;73.40
32506;DHT22;18955;51.224;8.482;2022-09-09T05:33:59;14.10;73.30
32506;DHT22;18955;51.224;8.482;2022-09-09T05:36:25;14.20;73.30
32506;DHT22;18955;51.224;8.482;2022-09-09T05:38:55;14.10;73.30
32506;DHT22;18955;51.224;8.482;2022-09-09T05:41:22;14.10;73.30
32506;DHT22;18955;51.224;8.482;2022-09-09T05:43:50;14.10;73.30
32506;DHT22;18955;51.224;8.482;2022-09-09T05:46:19;14.10;73.20
32506;DHT22;18955;51.224;8.482;2022-09-09T05:48:48;14.10;73.10
32506;DHT22;18955;51.224;8.482;2022-09-09T05:51:22;14.20;73.20
32506;DHT22;18955;51.224;8.482;2022-09-09T05:53:50;14.20;73.20
32506;DHT22;18955;51.224;8.482;2022-09-09T05:56:23;14.20;73.20
32506;DHT22;18955;51.224;8.482;2022-09-09T05:58:52;14.20;73.20
32506;DHT22;18955;51.224;8.482;2022-09-09T06:01:25;14.10;73.40
32506;DHT22;18955;51.224;8.482;2022-09-09T06:03:57;14.20;73.40
32506;DHT22;18955;51.224;8.482;2022-09-09T06:06:26;14.10;73.30
32506;DHT22;18955;51.224;8.482;2022-09-09T06:08:56;14.20;73.30
32506;DHT22;18955;51.224;8.482;2022-09-09T06:11:31;14.10;73.30
32506;DHT22;18955;51.224;8.482;2022-09-09T06:14:00;14.20;73.60
32506;DHT22;18955;51.224;8.482;2022-09-09T06:16:29;14.20;73.40
32506;DHT22;18955;51.224;8.482;2022-09-09T06:18:56;14.10;73.30
32506;DHT22;18955;51.224;8.482;2022-09-09T06:21:34;14.10;73.40
32506;DHT22;18955;51.224;8.482;2022-09-09T06:24:03;14.10;73.30
32506;DHT22;18955;51.224;8.482;2022-09-09T06:26:31;14.20;73.30
32506;DHT22;18955;51.224;8.482;2022-09-09T06:29:01;14.20;73.60
32506;DHT22;18955;51.224;8.482;2022-09-09T06:31:31;14.20;73.50
32506;DHT22;18955;51.224;8.482;2022-09-09T06:34:05;14.20;73.40
32506;DHT22;18955;51.224;8.482;2022-09-09T06:36:36;14.20;73.40
32506;DHT22;18955;51.224;8.482;2022-09-09T06:39:04;14.20;73.90
32506;DHT22;18955;51.224;8.482;2022-09-09T06:41:32;14.20;73.50
32506;DHT22;18955;51.224;8.482;2022-09-09T06:44:00;14.20;73.50
32506;DHT22;18955;51.224;8.482;2022-09-09T06:46:38;14.20;73.70
32506;DHT22;18955;51.224;8.482;2022-09-09T06:49:06;14.20;73.50
32506;DHT22;18955;51.224;8.482;2022-09-09T06:51:35;14.20;73.30
32506;DHT22;18955;51.224;8.482;2022-09-09T06:54:04;14.20;73.40
32506;DHT22;18955;51.224;8.482;2022-09-09T06:56:39;14.30;73.60
32506;DHT22;18955;51.224;8.482;2022-09-09T06:59:12;14.20;73.30
32506;DHT22;18955;51.224;8.482;2022-09-09T07:01:41;14.20;73.20
32506;DHT22;18955;51.224;8.482;2022-09-09T07:04:11;14.30;73.20
32506;DHT22;18955;51.224;8.482;2022-09-09T07:06:45;14.30;73.00
32506;DHT22;18955;51.224;8.482;2022-09-09T07:09:16;14.30;73.00
32506;DHT22;18955;51.224;8.482;2022-09-09T07:11:47;14.30;73.00
32506;DHT22;18955;51.224;8.482;2022-09-09T07:14:15;14.30;73.00
32506;DHT22;18955;51.224;8.482;2022-09-09T07:16:46;14.30;73.30
32506;DHT22;18955;51.224;8.482;2022-09-09T07:19:14;14.30;73.30
32506;DHT22;18955;51.224;8.482;2022-09-09T07:21:42;14.30;73.20
32506;DHT22;18955;51.224;8.482;2022-09-09T07:24:11;14.40;73.60
32506;DHT22;18955;51.224;8.482;2022-09-09T07:26:39;14.30;73.10
32506;DHT22;18955;51.224;8.482;2022-09-09T07:29:07;14.30;73.30
32506;DHT22;18955;51.224;8.482;2022-09-09T07:31:36;14.30;73.20
32506;DHT22;18955;51.224;8.482;2022-09-09T07:34:06;14.30;73.30
32506;DHT22;18955;51.224;8.482;2022-09-09T07:36:36;14.30;73.30
32506;DHT22;18955;51.224;8.482;2022-09-09T07:39:07;14.40;73.30
32506;DHT22;18955;51.224;8.482;2022-09-09T07:41:47;14.40;73.20
32506;DHT22;18955;51.224;8.482;2022-09-09T07:44:22;14.40;73.30
32506;DHT22;18955;51.224;8.482;2022-09-09T07:46:53;14.40;73.30
32506;DHT22;18955;51.224;8.482;2022-09-09T07:49:25;14.40;73.50
32506;DHT22;18955;51.224;8.482;2022-09-09T07:51:51;14.40;73.50
32506;DHT22;18955;51.224;8.482;2022-09-09T07:54:19;14.40;73.40
32506;DHT22;18955;51.224;8.482;2022-09-09T07:56:50;14.40;73.40
32506;DHT22;18955;51.224;8.482;2022-09-09T07:59:17;14.40;73.30
32506;DHT22;18955;51.224;8.482;2022-09-09T08:01:48;14.40;73.30
32506;DHT22;18955;51.224;8.482;2022-09-09T08:04:20;14.40;73.40
32506;DHT22;18955;51.224;8.482;2022-09-09T08:06:50;14.40;73.40
32506;DHT22;18955;51.224;8.482;2022-09-09T08:09:20;14.50;73.40
32506;DHT22;18955;51.224;8.482;2022-09-09T08:11:48;14.50;73.50
32506;DHT22;18955;51.224;8.482;2022-09-09T08:14:16;14.50;73.60
32506;DHT22;18955;51.224;8.482;2022-09-09T08:16:45;14.50;73.70
32506;DHT22;18955;51.224;8.482;2022-09-09T08:19:14;14.50;73.60
32506;DHT22;18955;51.224;8.482;2022-09-09T08:21:45;14.50;73.60
32506;DHT22;18955;51.224;8.482;2022-09-09T08:24:13;14.50;73.50
32506;DHT22;18955;51.224;8.482;2022-09-09T08:26:47;14.50;73.40
32506;DHT22;18955;51.224;8.482;2022-09-09T08:29:20;14.50;73.50
32506;DHT22;18955;51.224;8.482;2022-09-09T08:31:49;14.50;73.50
32506;DHT22;18955;51.224;8.482;2022-09-09T08:34:17;14.50;73.60
32506;DHT22;18955;51.224;8.482;2022-09-09T08:36:49;14.60;73.60
32506;DHT22;18955;51.224;8.482;2022-09-09T08:39:18;14.60;73.60
32506;DHT22;18955;51.224;8.482;2022-09-09T08:45:00;14.60;73.40
32506;DHT22;18955;51.224;8.482;2022-09-09T08:50:26;14.60;73.60
32506;DHT22;18955;51.224;8.482;2022-09-09T08:53:27;14.60;73.60
32506;DHT22;18955;51.224;8.482;2022-09-09T08:55:59;14.60;73.80
32506;DHT22;18955;51.224;8.482;2022-09-09T08:58:35;14.60;73.70
32506;DHT22;18955;51.224;8.482;2022-09-09T09:12:20;14.70;73.50
32506;DHT22;18955;51.224;8.482;2022-09-09T09:14:49;14.70;73.40
32506;DHT22;18955;51.224;8.482;2022-09-09T09:17:19;14.80;73.30
32506;DHT22;18955;51.224;8.482;2022-09-09T09:19:48;14.80;73.40
32506;DHT22;18955;51.224;8.482;2022-09-09T09:27:40;14.80;73.30
32506;DHT22;18955;51.224;8.482;2022-09-09T09:30:14;14.80;73.30
32506;DHT22;18955;51.224;8.482;2022-09-09T09:33:02;14.80;73.20
32506;DHT22;18955;51.224;8.482;2022-09-09T09:35:31;14.80;73.20
32506;DHT22;18955;51.224;8.482;2022-09-09T09:37:57;14.80;73.30
32506;DHT22;18955;51.224;8.482;2022-09-09T09:40:27;14.90;73.30
32506;DHT22;18955;51.224;8.482;2022-09-09T09:42:59;14.80;73.10
32506;DHT22;18955;51.224;8.482;2022-09-09T09:45:34;14.90;73.10
32506;DHT22;18955;51.224;8.482;2022-09-09T09:48:05;14.90;73.10
32506;DHT22;18955;51.224;8.482;2022-09-09T09:50:34;14.90;73.20
32506;DHT22;18955;51.224;8.482;2022-09-09T09:53:06;14.90;73.40
32506;DHT22;18955;51.224;8.482;2022-09-09T09:58:23;15.00;73.30
32506;DHT22;18955;51.224;8.482;2022-09-09T10:00:52;14.90;73.20
32506;DHT22;18955;51.224;8.482;2022-09-09T10:03:31;14.90;73.20
32506;DHT22;18955;51.224;8.482;2022-09-09T10:06:01;14.90;73.20
32506;DHT22;18955;51.224;8.482;2022-09-09T10:08:27;15.00;73.30
32506;DHT22;18955;51.224;8.482;2022-09-09T10:19:05;15.00;73.20
32506;DHT22;18955;51.224;8.482;2022-09-09T10:26:55;15.10;73.40
32506;DHT22;18955;51.224;8.482;2022-09-09T10:29:53;15.10;73.60
32506;DHT22;18955;51.224;8.482;2022-09-09T10:35:12;15.10;73.80
32506;DHT22;18955;51.224;8.482;2022-09-09T10:48:58;15.20;73.40
32506;DHT22;18955;51.224;8.482;2022-09-09T10:54:09;15.20;73.60
32506;DHT22;18955;51.224;8.482;2022-09-09T10:56:41;15.20;73.50
32506;DHT22;18955;51.224;8.482;2022-09-09T10:59:28;15.20;73.50
32506;DHT22;18955;51.224;8.482;2022-09-09T11:04:56;15.30;73.70
32506;DHT22;18955;51.224;8.482;2022-09-09T11:07:56;15.20;73.50
32506;DHT22;18955;51.224;8.482;2022-09-09T11:16:40;15.30;73.30
32506;DHT22;18955;51.224;8.482;2022-09-09T11:19:24;15.30;73.30
32506;DHT22;18955;51.224;8.482;2022-09-09T11:21:52;15.30;73.40
32506;DHT22;18955;51.224;8.482;2022-09-09T11:24:33;15.30;73.40
32506;DHT22;18955;51.224;8.482;2022-09-09T11:27:25;15.30;73.40
32506;DHT22;18955;51.224;8.482;2022-09-09T11:30:05;15.40;73.30
32506;DHT22;18955;51.224;8.482;2022-09-09T11:32:44;15.40;73.40
32506;DHT22;18955;51.224;8.482;2022-09-09T11:41:21;15.40;73.20
32506;DHT22;18955;51.224;8.482;2022-09-09T11:43:52;15.40;73.10
32506;DHT22;18955;51.224;8.482;2022-09-09T11:46:21;15.40;73.10
32506;DHT22;18955;51.224;8.482;2022-09-09T11:49:00;15.40;73.10
32506;DHT22;18955;51.224;8.482;2022-09-09T11:51:31;15.40;73.10
32506;DHT22;18955;51.224;8.482;2022-09-09T11:54:00;15.40;73.30
32506;DHT22;18955;51.224;8.482;2022-09-09T11:59:05;15.50;73.40
32506;DHT22;18955;51.224;8.482;2022-09-09T12:01:43;15.50;74.00
32506;DHT22;18955;51.224;8.482;2022-09-09T12:04:30;15.50;73.50
32506;DHT22;18955;51.224;8.482;2022-09-09T12:07:04;15.50;73.30
32506;DHT22;18955;51.224;8.482;2022-09-09T12:12:16;15.50;73.30
32506;DHT22;18955;51.224;8.482;2022-09-09T12:17:45;15.60;73.50
32506;DHT22;18955;51.224;8.482;2022-09-09T12:20:26;15.60;73.70
32506;DHT22;18955;51.224;8.482;2022-09-09T12:25:58;15.60;73.50
32506;DHT22;18955;51.224;8.482;2022-09-09T12:28:47;15.60;73.80
32506;DHT22;18955;51.224;8.482;2022-09-09T12:34:13;15.70;73.60
32506;DHT22;18955;51.224;8.482;2022-09-09T12:36:41;15.70;73.60
32506;DHT22;18955;51.224;8.482;2022-09-09T12:39:36;15.70;73.90
32506;DHT22;18955;51.224;8.482;2022-09-09T12:42:04;15.70;73.60
32506;DHT22;18955;51.224;8.482;2022-09-09T12:44:30;15.70;74.10
32506;DHT22;18955;51.224;8.482;2022-09-09T12:47:01;15.70;73.80
32506;DHT22;18955;51.224;8.482;2022-09-09T12:49:29;15.70;73.80
32506;DHT22;18955;51.224;8.482;2022-09-09T12:52:06;15.70;73.60
32506;DHT22;18955;51.224;8.482;2022-09-09T12:55:01;15.80;73.70
32506;DHT22;18955;51.224;8.482;2022-09-09T12:57:33;15.80;73.60
32506;DHT22;18955;51.224;8.482;2022-09-09T13:00:11;15.80;73.50
32506;DHT22;18955;51.224;8.482;2022-09-09T13:02:46;15.80;73.50
32506;DHT22;18955;51.224;8.482;2022-09-09T13:05:15;15.80;73.70
32506;DHT22;18955;51.224;8.482;2022-09-09T13:07:42;15.80;73.50
32506;DHT22;18955;51.224;8.482;2022-09-09T13:10:13;15.90;73.50
32506;DHT22;18955;51.224;8.482;2022-09-09T13:12:41;15.90;73.50
32506;DHT22;18955;51.224;8.482;2022-09-09T13:15:24;15.90;73.60
32506;DHT22;18955;51.224;8.482;2022-09-09T13:17:56;15.90;73.60
32506;DHT22;18955;51.224;8.482;2022-09-09T13:20:23;16.00;73.60
32506;DHT22;18955;51.224;8.482;2022-09-09T13:22:52;16.00;73.40
32506;DHT22;18955;51.224;8.482;2022-09-09T13:25:22;16.00;73.50
32506;DHT22;18955;51.224;8.482;2022-09-09T13:30:26;16.00;73.30
32506;DHT22;18955;51.224;8.482;2022-09-09T13:35:47;16.00;73.30
32506;DHT22;18955;51.224;8.482;2022-09-09T13:38:16;16.00;73.30
32506;DHT22;18955;51.224;8.482;2022-09-09T13:40:55;16.00;73.30
32506;DHT22;18955;51.224;8.482;2022-09-09T13:43:24;16.10;73.20
32506;DHT22;18955;51.224;8.482;2022-09-09T13:46:00;16.10;73.20
32506;DHT22;18955;51.224;8.482;2022-09-09T13:48:27;16.10;73.00
32506;DHT22;18955;51.224;8.482;2022-09-09T13:50:55;16.10;73.20
32506;DHT22;18955;51.224;8.482;2022-09-09T13:53:22;16.20;73.00
32506;DHT22;18955;51.224;8.482;2022-09-09T13:55:48;16.20;72.90
32506;DHT22;18955;51.224;8.482;2022-09-09T13:58:16;16.30;72.70
32506;DHT22;18955;51.224;8.482;2022-09-09T14:00:45;16.30;72.50
32506;DHT22;18955;51.224;8.482;2022-09-09T14:03:12;16.40;72.30
32506;DHT22;18955;51.224;8.482;2022-09-09T14:05:39;16.50;72.20
32506;DHT22;18955;51.224;8.482;2022-09-09T14:08:07;16.50;71.90
32506;DHT22;18955;51.224;8.482;2022-09-09T14:10:34;16.50;71.80
32506;DHT22;18955;51.224;8.482;2022-09-09T14:13:03;16.60;71.70
32506;DHT22;18955;51.224;8.482;2022-09-09T14:15:29;16.60;71.70
32506;DHT22;18955;51.224;8.482;2022-09-09T14:17:55;16.60;71.90
32506;DHT22;18955;51.224;8.482;2022-09-09T14:20:22;16.60;72.30
32506;DHT22;18955;51.224;8.482;2022-09-09T14:22:48;16.70;71.60
32506;DHT22;18955;51.224;8.482;2022-09-09T14:25:14;16.80;71.60
32506;DHT22;18955;51.224;8.482;2022-09-09T14:27:41;16.80;71.40
32506;DHT22;18955;51.224;8.482;2022-09-09T14:30:08;16.90;71.40
32506;DHT22;18955;51.224;8.482;2022-09-09T14:32:35;16.90;71.20
32506;DHT22;18955;51.224;8.482;2022-09-09T14:35:02;16.90;71.30
32506;DHT22;18955;51.224;8.482;2022-09-09T14:37:28;16.90;71.70
32506;DHT22;18955;51.224;8.482;2022-09-09T14:39:57;16.80;71.90
32506;DHT22;18955;51.224;8.482;2022-09-09T14:42:23;16.90;71.70
32506;DHT22;18955;51.224;8.482;2022-09-09T14:44:50;17.00;71.60
32506;DHT22;18955;51.224;8.482;2022-09-09T14:47:16;17.00;71.40
32506;DHT22;18955;51.224;8.482;2022-09-09T14:49:42;17.00;71.60
32506;DHT22;18955;51.224;8.482;2022-09-09T14:52:09;17.00;71.60
32506;DHT22;18955;51.224;8.482;2022-09-09T14:54:35;17.00;71.60
32506;DHT22;18955;51.224;8.482;2022-09-09T14:57:01;17.00;71.70
32506;DHT22;18955;51.224;8.482;2022-09-09T14:59:28;17.00;71.80
32506;DHT22;18955;51.224;8.482;2022-09-09T15:01:54;17.00;71.80
32506;DHT22;18955;51.224;8.482;2022-09-09T15:04:20;17.00;71.70
32506;DHT22;18955;51.224;8.482;2022-09-09T15:06:47;17.00;71.60
32506;DHT22;18955;51.224;8.482;2022-09-09T15:09:15;17.00;71.70
32506;DHT22;18955;51.224;8.482;2022-09-09T15:11:42;17.00;71.80
32506;DHT22;18955;51.224;8.482;2022-09-09T15:14:09;17.00;71.80
32506;DHT22;18955;51.224;8.482;2022-09-09T15:16:35;17.10;72.00
32506;DHT22;18955;51.224;8.482;2022-09-09T15:19:02;17.00;71.90
32506;DHT22;18955;51.224;8.482;2022-09-09T15:21:31;17.10;72.00
32506;DHT22;18955;51.224;8.482;2022-09-09T15:23:58;17.10;71.90
32506;DHT22;18955;51.224;8.482;2022-09-09T15:26:25;17.10;71.80
32506;DHT22;18955;51.224;8.482;2022-09-09T15:28:52;17.10;72.60
32506;DHT22;18955;51.224;8.482;2022-09-09T15:31:23;17.10;72.10
32506;DHT22;18955;51.224;8.482;2022-09-09T15:33:51;17.10;72.20
32506;DHT22;18955;51.224;8.482;2022-09-09T15:36:23;17.10;72.20
32506;DHT22;18955;51.224;8.482;2022-09-09T15:38:50;17.10;72.30
32506;DHT22;18955;51.224;8.482;2022-09-09T15:41:18;17.20;72.30
32506;DHT22;18955;51.224;8.482;2022-09-09T15:43:46;17.10;72.10
32506;DHT22;18955;51.224;8.482;2022-09-09T15:46:34;17.20;72.10
32506;DHT22;18955;51.224;8.482;2022-09-09T15:49:16;17.20;72.10
32506;DHT22;18955;51.224;8.482;2022-09-09T15:51:47;17.20;72.00
32506;DHT22;18955;51.224;8.482;2022-09-09T15:54:21;17.20;72.00
32506;DHT22;18955;51.224;8.482;2022-09-09T15:56:55;17.20;72.10
32506;DHT22;18955;51.224;8.482;2022-09-09T15:59:23;17.30;72.10
32506;DHT22;18955;51.224;8.482;2022-09-09T16:01:49;17.30;72.00
32506;DHT22;18955;51.224;8.482;2022-09-09T16:04:19;17.30;72.00
32506;DHT22;18955;51.224;8.482;2022-09-09T16:07:03;17.30;71.90
32506;DHT22;18955;51.224;8.482;2022-09-09T16:09:31;17.30;71.80
32506;DHT22;18955;51.224;8.482;2022-09-09T16:11:59;17.30;71.70
32506;DHT22;18955;51.224;8.482;2022-09-09T16:14:27;17.30;71.70
32506;DHT22;18955;51.224;8.482;2022-09-09T16:16:53;17.30;71.80
32506;DHT22;18955;51.224;8.482;2022-09-09T16:19:20;17.30;71.70
32506;DHT22;18955;51.224;8.482;2022-09-09T16:21:49;17.30;71.60
32506;DHT22;18955;51.224;8.482;2022-09-09T16:24:17;17.30;71.70
32506;DHT22;18955;51.224;8.482;2022-09-09T16:26:49;17.30;71.60
32506;DHT22;18955;51.224;8.482;2022-09-09T16:29:17;17.30;71.60
32506;DHT22;18955;51.224;8.482;2022-09-09T16:31:44;17.30;71.60
32506;DHT22;18955;51.224;8.482;2022-09-09T16:34:11;17.30;71.70
32506;DHT22;18955;51.224;8.482;2022-09-09T16:36:39;17.30;71.60
32506;DHT22;18955;51.224;8.482;2022-09-09T16:39:14;17.30;71.70
32506;DHT22;18955;51.224;8.482;2022-09-09T16:41:41;17.30;71.60
32506;DHT22;18955;51.224;8.482;2022-09-09T16:44:11;17.30;71.60
32506;DHT22;18955;51.224;8.482;2022-09-09T16:46:41;17.30;71.60
32506;DHT22;18955;51.224;8.482;2022-09-09T16:49:12;17.30;71.50
32506;DHT22;18955;51.224;8.482;2022-09-09T16:51:42;17.30;72.20
32506;DHT22;18955;51.224;8.482;2022-09-09T16:54:09;17.30;71.60
32506;DHT22;18955;51.224;8.482;2022-09-09T16:56:38;17.30;71.60
32506;DHT22;18955;51.224;8.482;2022-09-09T16:59:19;17.30;71.60
32506;DHT22;18955;51.224;8.482;2022-09-09T17:01:47;17.30;71.60
32506;DHT22;18955;51.224;8.482;2022-09-09T17:04:17;17.30;71.60
32506;DHT22;18955;51.224;8.482;2022-09-09T17:06:47;17.30;71.60
32506;DHT22;18955;51.224;8.482;2022-09-09T17:09:15;17.30;71.70
32506;DHT22;18955;51.224;8.482;2022-09-09T17:11:43;17.30;71.70
32506;DHT22;18955;51.224;8.482;2022-09-09T17:14:14;17.30;71.70
32506;DHT22;18955;51.224;8.482;2022-09-09T17:16:40;17.30;71.70
32506;DHT22;18955;51.224;8.482;2022-09-09T17:19:07;17.30;71.70
32506;DHT22;18955;51.224;8.482;2022-09-09T17:21:36;17.30;71.70
32506;DHT22;18955;51.224;8.482;2022-09-09T17:24:02;17.30;71.70
32506;DHT22;18955;51.224;8.482;2022-09-09T17:26:30;17.30;71.70
32506;DHT22;18955;51.224;8.482;2022-09-09T17:28:57;17.30;71.70
32506;DHT22;18955;51.224;8.482;2022-09-09T17:31:26;17.30;71.70
32506;DHT22;18955;51.224;8.482;2022-09-09T17:33:55;17.30;71.70
32506;DHT22;18955;51.224;8.482;2022-09-09T17:36:25;17.30;71.70
32506;DHT22;18955;51.224;8.482;2022-09-09T17:38:53;17.30;71.80
32506;DHT22;18955;51.224;8.482;2022-09-09T17:41:23;17.20;71.70
32506;DHT22;18955;51.224;8.482;2022-09-09T17:43:50;17.30;71.90
32506;DHT22;18955;51.224;8.482;2022-09-09T17:46:19;17.30;71.80
32506;DHT22;18955;51.224;8.482;2022-09-09T17:48:49;17.30;72.40
32506;DHT22;18955;51.224;8.482;2022-09-09T17:51:21;17.20;71.80
32506;DHT22;18955;51.224;8.482;2022-09-09T17:53:55;17.20;71.80
32506;DHT22;18955;51.224;8.482;2022-09-09T17:56:26;17.20;71.90
32506;DHT22;18955;51.224;8.482;2022-09-09T17:58:54;17.20;71.90
32506;DHT22;18955;51.224;8.482;2022-09-09T18:01:23;17.20;71.90